Kingman, KS (67068)

11:21 PM CDT on July 29, 2016 (GMT -0500)
Trail Ridge | | Change Station

Elev 1486 ft 37.72 °N, 97.83 °W | Updated 9 minutes ago

Scattered Clouds
Scattered Clouds
73.9 °F
Feels Like 73 °F
N
0.0
Wind Variable Wind from SE

Today
High -- | Low -- °F
--% Chance of Precip.
Yesterday
High -- | Low -- °F
Precip. -- in
Pressure 30.03 in
Visibility 10.0 miles
Clouds Scattered Clouds 11000 ft
Heat Index 73 °F
Dew Point 69 °F
Humidity 84%
Rainfall 0.12 in
Snow Depth Not available.
6:34 AM 8:43 PM
Waning Crescent, 16% visible
METAR KPTT 300415Z AUTO 14005KT 10SM SCT110 24/18 A3003 RMK AO2 T02370183
Pressure 30.03 in
Visibility 10.0 miles
Clouds Scattered Clouds 11000 ft
Heat Index 73 °F
Dew Point 69 °F
Humidity 84%
Rainfall 0.12 in
Snow Depth Not available.
6:34 AM 8:43 PM
Waning Crescent, 16% visible
METAR KPTT 300415Z AUTO 14005KT 10SM SCT110 24/18 A3003 RMK AO2 T02370183

10-Day Weather Forecast

Almanac

Astronomy

Jul. 29, 2016 Rise Set
Actual Time
Civil Twilight
Nautical Twilight
Astronomical Twilight
Moon
Length of Visible Light
Length of Day
Tomorrow will be .
, % of the Moon is Illuminated

Today's Extremes

State Highs State Lows

Community

WunderPhotos

Upload Photos

1,928,506 photos uploaded!

WunderBlog® & News

Nearby

Air Quality

  Air Quality AQ Index Pollutant
Not available.

Snow Depth

Station Depth Elevation

Earthquake Activity

City Distance Mag. Time & Date
Minimum magnitude displayed is 2.5.

Coastal Water Temperatures

Place Temperature

Stations

Nearby Weather Stations

Station Location Temp. Windchill Dew Point Humidity Wind Precip. Elev Updated Type
                   

Watches & Warnings

There are currently no watches in effect.